createdAt,value
2018-07-22T00:00:10.177Z,17.03
2018-07-22T00:02:40.477Z,22.33
2018-07-22T00:05:10.680Z,19.50
2018-07-22T00:07:40.099Z,20.77
2018-07-22T00:10:21.259Z,28.13
2018-07-22T00:12:50.985Z,25.80
2018-07-22T00:15:20.734Z,20.27
2018-07-22T00:17:50.155Z,16.70
2018-07-22T00:20:20.014Z,21.87
2018-07-22T00:22:49.438Z,19.73
2018-07-22T00:25:18.446Z,22.23
2018-07-22T00:27:47.848Z,17.27
2018-07-22T00:30:16.851Z,19.13
2018-07-22T00:32:46.060Z,19.07
2018-07-22T00:35:15.411Z,19.27
2018-07-22T00:37:44.884Z,19.73
2018-07-22T00:40:14.382Z,19.40
2018-07-22T00:42:44.039Z,26.17
2018-07-22T00:45:14.334Z,19.23
2018-07-22T00:47:43.799Z,19.33
2018-07-22T00:50:13.875Z,18.17
2018-07-22T00:52:44.720Z,19.23
2018-07-22T00:55:14.154Z,22.47
2018-07-22T00:57:43.526Z,22.33
2018-07-22T01:00:14.153Z,22.87
2018-07-22T01:02:43.660Z,20.57
2018-07-22T01:05:13.136Z,23.47
2018-07-22T01:07:43.798Z,17.23
2018-07-22T01:10:13.225Z,24.37
2018-07-22T01:12:44.151Z,23.07
2018-07-22T01:15:13.631Z,22.77
2018-07-22T01:17:43.186Z,26.07
2018-07-22T01:20:12.623Z,24.30
2018-07-22T01:22:42.026Z,24.80
2018-07-22T01:25:11.708Z,20.13
2018-07-22T01:27:41.284Z,23.37
2018-07-22T01:30:11.293Z,19.50
2018-07-22T01:32:40.853Z,20.33
2018-07-22T01:35:10.238Z,22.80
2018-07-22T01:37:39.568Z,22.43
2018-07-22T01:40:09.047Z,20.10
2018-07-22T01:42:38.551Z,23.63
2018-07-22T01:45:08.083Z,24.03
2018-07-22T01:47:37.462Z,22.50
2018-07-22T01:50:06.914Z,23.80
2018-07-22T01:52:36.401Z,22.80
2018-07-22T01:55:05.774Z,20.87
2018-07-22T01:57:35.139Z,21.17
2018-07-22T02:00:04.630Z,24.37
2018-07-22T02:02:33.994Z,26.17
2018-07-22T02:05:03.456Z,25.40
2018-07-22T02:07:32.809Z,25.70
2018-07-22T02:10:02.228Z,22.60
2018-07-22T02:12:31.568Z,24.60
2018-07-22T02:15:00.965Z,28.03
2018-07-22T02:17:30.423Z,18.57
2018-07-22T02:19:59.896Z,18.57
2018-07-22T02:22:29.276Z,19.60
2018-07-22T02:24:59.660Z,22.63
2018-07-22T02:27:29.004Z,26.60
2018-07-22T02:29:58.485Z,22.37
2018-07-22T02:32:27.916Z,20.57
2018-07-22T02:34:57.536Z,22.87
2018-07-22T02:37:27.203Z,18.60
2018-07-22T02:39:56.223Z,23.97
2018-07-22T02:42:25.554Z,27.20
2018-07-22T02:44:54.919Z,26.27
2018-07-22T02:47:24.365Z,26.80
2018-07-22T02:49:54.601Z,27.60
2018-07-22T02:52:23.984Z,24.20
2018-07-22T02:54:53.364Z,25.67
2018-07-22T02:57:22.728Z,24.70
2018-07-22T02:59:52.173Z,26.13
2018-07-22T03:02:21.562Z,22.10
2018-07-22T03:04:51.052Z,24.10
2018-07-22T03:07:20.538Z,23.27
2018-07-22T03:09:49.543Z,25.00
2018-07-22T03:12:18.473Z,22.33
2018-07-22T03:14:47.502Z,21.53
2018-07-22T03:17:16.740Z,25.10
2018-07-22T03:19:45.780Z,25.60
2018-07-22T03:22:15.116Z,21.20
2018-07-22T03:24:44.525Z,27.07
2018-07-22T03:27:13.529Z,21.83
2018-07-22T03:29:42.791Z,22.73
2018-07-22T03:32:12.169Z,20.10
2018-07-22T03:34:41.595Z,23.47
2018-07-22T03:37:10.974Z,22.70
2018-07-22T03:39:40.481Z,23.20
2018-07-22T03:42:09.870Z,23.50
2018-07-22T03:44:39.385Z,22.30
2018-07-22T03:47:08.848Z,21.40
2018-07-22T03:49:38.958Z,21.60
2018-07-22T03:52:08.514Z,19.90
2018-07-22T03:54:37.920Z,25.87
2018-07-22T03:57:07.516Z,25.60
2018-07-22T03:59:36.894Z,25.50
2018-07-22T04:02:07.120Z,29.40
2018-07-22T04:04:36.283Z,23.93
2018-07-22T04:07:05.654Z,23.93
2018-07-22T04:09:35.156Z,25.00
2018-07-22T04:12:05.472Z,21.97
2018-07-22T04:14:34.952Z,23.83
2018-07-22T04:17:04.324Z,28.33
2018-07-22T04:19:33.850Z,32.13
2018-07-22T04:22:02.834Z,32.47
2018-07-22T04:24:32.108Z,34.60
2018-07-22T04:27:01.291Z,30.83
2018-07-22T04:29:30.932Z,30.17
2018-07-22T04:32:00.406Z,29.10
2018-07-22T04:34:29.823Z,29.03
2018-07-22T04:36:59.273Z,32.67
2018-07-22T04:39:28.749Z,30.93
2018-07-22T04:41:58.181Z,40.23
2018-07-22T04:44:27.657Z,29.37
2018-07-22T04:46:57.401Z,25.07
2018-07-22T04:49:26.982Z,26.40
2018-07-22T04:51:56.440Z,39.67
2018-07-22T04:54:26.172Z,28.00
2018-07-22T04:56:55.546Z,31.63
2018-07-22T04:59:25.102Z,30.60
2018-07-22T05:01:54.546Z,31.87
2018-07-22T05:04:24.115Z,30.97
2018-07-22T05:06:53.128Z,26.10
2018-07-22T05:09:22.502Z,27.67
2018-07-22T05:11:51.918Z,29.00
2018-07-22T05:14:21.321Z,24.40
2018-07-22T05:16:50.790Z,28.53
2018-07-22T05:19:20.227Z,30.13
2018-07-22T05:21:49.224Z,28.20
2018-07-22T05:24:18.463Z,25.50
2018-07-22T05:26:47.903Z,25.33
2018-07-22T05:29:17.249Z,29.57
2018-07-22T05:31:46.615Z,26.30
2018-07-22T05:34:16.030Z,29.97
2018-07-22T05:36:45.482Z,26.60
2018-07-22T05:39:14.883Z,23.67
2018-07-22T05:41:44.321Z,28.23
2018-07-22T05:44:13.703Z,26.00
2018-07-22T05:46:43.086Z,28.40
2018-07-22T05:49:12.451Z,24.93
2018-07-22T05:51:41.853Z,29.40
2018-07-22T05:54:11.249Z,35.60
2018-07-22T05:56:40.705Z,32.20
2018-07-22T05:59:10.117Z,23.83
2018-07-22T06:01:39.511Z,28.10
2018-07-22T06:04:09.558Z,21.60
2018-07-22T06:06:38.990Z,24.00
2018-07-22T06:09:09.705Z,26.20
2018-07-22T06:11:39.145Z,24.10
2018-07-22T06:14:08.868Z,24.83
2018-07-22T06:16:38.357Z,24.57
2018-07-22T06:19:07.676Z,24.67
2018-07-22T06:21:37.058Z,28.13
2018-07-22T06:24:06.584Z,29.10
2018-07-22T06:26:36.109Z,21.10
2018-07-22T06:29:05.612Z,24.23
2018-07-22T06:31:35.203Z,20.40
2018-07-22T06:34:04.639Z,26.00
2018-07-22T06:36:33.883Z,24.10
2018-07-22T06:39:03.667Z,24.77
2018-07-22T06:41:33.208Z,35.43
2018-07-22T06:44:02.933Z,28.70
2018-07-22T06:46:32.406Z,29.70
2018-07-22T06:49:01.949Z,27.17
2018-07-22T06:51:32.301Z,27.37
2018-07-22T06:54:01.351Z,27.27
2018-07-22T06:56:30.613Z,28.00
2018-07-22T06:59:00.072Z,26.93
2018-07-22T07:01:29.598Z,24.20
2018-07-22T07:03:59.085Z,30.27
2018-07-22T07:06:28.471Z,24.60
2018-07-22T07:08:57.934Z,27.90
2018-07-22T07:11:27.299Z,31.70
2018-07-22T07:13:56.779Z,31.13
2018-07-22T07:16:26.287Z,27.67
2018-07-22T07:18:57.178Z,32.80
2018-07-22T07:21:26.321Z,28.50
2018-07-22T07:23:56.235Z,26.47
2018-07-22T07:26:25.994Z,28.97
2018-07-22T07:28:55.560Z,25.83
2018-07-22T07:31:25.263Z,29.00
2018-07-22T07:33:54.879Z,20.13
2018-07-22T07:36:25.608Z,24.50
2018-07-22T07:38:56.093Z,25.90
2018-07-22T07:41:25.504Z,28.70
2018-07-22T07:43:55.872Z,21.97
2018-07-22T07:46:25.424Z,18.67
2018-07-22T07:48:54.781Z,16.77
2018-07-22T07:51:24.274Z,14.57
2018-07-22T07:53:53.695Z,19.47
2018-07-22T07:56:23.193Z,10.37
2018-07-22T07:58:52.543Z,9.50
2018-07-22T08:01:21.968Z,14.00
2018-07-22T08:03:51.641Z,11.53
2018-07-22T08:06:21.071Z,14.50
2018-07-22T08:08:50.512Z,11.63
2018-07-22T08:11:19.963Z,13.40
2018-07-22T08:13:49.749Z,11.63
2018-07-22T08:16:18.780Z,14.53
2018-07-22T08:18:48.085Z,11.87
2018-07-22T08:21:17.633Z,12.03
2018-07-22T08:23:47.035Z,12.13
2018-07-22T08:26:16.437Z,11.13
2018-07-22T08:29:26.307Z,13.50
2018-07-22T08:31:55.893Z,11.27
2018-07-22T08:34:25.460Z,11.00
2018-07-22T08:36:54.912Z,10.27
2018-07-22T08:39:25.564Z,12.60
2018-07-22T08:41:55.111Z,14.03
2018-07-22T08:44:24.438Z,16.30
2018-07-22T08:46:53.879Z,12.77
2018-07-22T08:49:24.281Z,11.80
2018-07-22T08:51:53.806Z,14.87
2018-07-22T08:54:23.254Z,11.17
2018-07-22T08:56:52.765Z,12.30
2018-07-22T08:59:22.360Z,12.93
2018-07-22T09:01:51.797Z,11.33
2018-07-22T09:04:21.226Z,10.87
2018-07-22T09:06:50.617Z,10.60
2018-07-22T09:09:20.002Z,12.93
2018-07-22T09:11:49.195Z,11.97
2018-07-22T09:14:18.013Z,10.40
2018-07-22T09:16:47.408Z,10.63
2018-07-22T09:19:16.971Z,11.40
2018-07-22T09:21:46.602Z,12.40
2018-07-22T09:24:15.620Z,13.03
2018-07-22T09:26:45.090Z,11.93
2018-07-22T09:29:14.496Z,12.00
2018-07-22T09:31:44.013Z,12.33
2018-07-22T09:34:13.720Z,12.73
2018-07-22T09:36:43.365Z,9.80
2018-07-22T09:39:12.483Z,10.40
2018-07-22T09:41:41.547Z,9.67
2018-07-22T09:44:10.812Z,11.73
2018-07-22T09:46:40.215Z,9.93
2018-07-22T09:49:09.896Z,9.33
2018-07-22T09:51:39.617Z,12.00
2018-07-22T09:54:09.039Z,9.20
2018-07-22T09:56:38.421Z,11.80
2018-07-22T09:59:08.229Z,15.97
2018-07-22T10:01:38.173Z,10.27
2018-07-22T10:04:07.697Z,11.03
2018-07-22T10:06:37.138Z,9.30
2018-07-22T10:09:08.648Z,10.50
2018-07-22T10:11:38.352Z,9.63
2018-07-22T10:14:07.749Z,8.23
2018-07-22T10:16:37.234Z,10.73
2018-07-22T10:19:06.745Z,9.03
2018-07-22T10:21:36.331Z,8.30
2018-07-22T10:24:05.721Z,10.23
2018-07-22T10:26:35.073Z,9.40
2018-07-22T10:29:04.614Z,10.50
2018-07-22T10:31:34.017Z,9.53
2018-07-22T10:34:03.478Z,8.30
2018-07-22T10:36:33.053Z,8.53
2018-07-22T10:39:02.750Z,8.20
2018-07-22T10:41:32.119Z,10.17
2018-07-22T10:44:01.506Z,9.93
2018-07-22T10:46:30.898Z,9.20
2018-07-22T10:49:00.289Z,8.50
2018-07-22T10:51:29.642Z,9.50
2018-07-22T10:53:59.199Z,9.93
2018-07-22T10:56:28.601Z,7.20
2018-07-22T10:58:57.779Z,9.40
2018-07-22T11:01:27.395Z,8.83
2018-07-22T11:03:57.510Z,8.30
2018-07-22T11:06:27.018Z,9.07
2018-07-22T11:08:56.464Z,8.50
2018-07-22T11:11:25.948Z,8.07
2018-07-22T11:13:55.331Z,8.03
2018-07-22T11:16:25.019Z,10.83
2018-07-22T11:18:54.434Z,13.00
2018-07-22T11:21:24.347Z,9.63
2018-07-22T11:23:53.296Z,10.83
2018-07-22T11:26:22.546Z,8.57
2018-07-22T11:28:52.172Z,8.10
2018-07-22T11:31:21.510Z,10.70
2018-07-22T11:33:50.560Z,8.20
2018-07-22T11:36:19.876Z,9.40
2018-07-22T11:38:49.550Z,9.90
2018-07-22T11:41:19.033Z,10.20
2018-07-22T11:43:48.833Z,6.70
2018-07-22T11:46:20.228Z,8.63
2018-07-22T11:48:49.993Z,8.97
2018-07-22T11:51:19.586Z,8.13
2018-07-22T11:53:49.328Z,7.80
2018-07-22T11:56:19.551Z,8.33
2018-07-22T11:58:49.255Z,7.10
2018-07-22T12:01:19.586Z,8.17
2018-07-22T12:03:49.126Z,7.10
2018-07-22T12:06:18.792Z,6.80
2018-07-22T12:08:47.880Z,9.13
2018-07-22T12:11:17.341Z,7.73
2018-07-22T12:13:48.172Z,7.70
2018-07-22T12:16:17.887Z,9.23
2018-07-22T12:18:47.599Z,5.63
2018-07-22T12:21:17.043Z,5.60
2018-07-22T12:23:46.079Z,7.80
2018-07-22T12:26:15.364Z,8.67
2018-07-22T12:28:45.054Z,6.63
2018-07-22T12:31:14.580Z,7.43
2018-07-22T12:33:44.001Z,5.87
2018-07-22T12:36:13.389Z,5.90
2018-07-22T12:38:43.010Z,5.33
2018-07-22T12:41:12.533Z,5.00
2018-07-22T12:43:41.561Z,5.13
2018-07-22T12:46:11.627Z,9.47
2018-07-22T12:48:41.025Z,6.20
2018-07-22T12:51:10.518Z,4.67
2018-07-22T12:53:39.952Z,5.90
2018-07-22T12:56:09.445Z,4.57
2018-07-22T12:58:38.932Z,4.40
2018-07-22T13:01:08.496Z,6.50
2018-07-22T13:03:38.075Z,5.13
2018-07-22T13:06:07.608Z,3.97
2018-07-22T13:08:36.977Z,6.60
2018-07-22T13:11:06.449Z,6.00
2018-07-22T13:13:36.648Z,4.00
2018-07-22T13:16:06.464Z,6.20
2018-07-22T13:18:35.989Z,5.20
2018-07-22T13:21:05.454Z,6.77
2018-07-22T13:23:34.837Z,4.73
2018-07-22T13:26:04.319Z,5.17
2018-07-22T13:28:33.788Z,5.70
2018-07-22T13:31:03.312Z,6.00
2018-07-22T13:33:32.665Z,6.93
2018-07-22T13:36:02.023Z,7.67
2018-07-22T13:38:31.474Z,7.20
2018-07-22T13:41:00.792Z,8.23
2018-07-22T13:43:30.183Z,8.43
2018-07-22T13:45:59.630Z,7.17
2018-07-22T13:48:29.063Z,7.33
2018-07-22T13:50:58.485Z,7.83
2018-07-22T13:53:27.604Z,8.77
2018-07-22T13:55:56.716Z,9.40
2018-07-22T13:58:26.194Z,7.30
2018-07-22T14:00:55.848Z,7.80
2018-07-22T14:03:25.332Z,8.87
2018-07-22T14:05:54.960Z,11.77
2018-07-22T14:08:24.470Z,7.70
2018-07-22T14:10:54.645Z,10.03
2018-07-22T14:13:24.078Z,7.30
2018-07-22T14:15:53.754Z,9.53
2018-07-22T14:18:23.259Z,11.97
2018-07-22T14:20:52.657Z,10.50
2018-07-22T14:23:22.123Z,10.80
2018-07-22T14:25:51.763Z,10.90
2018-07-22T14:28:21.145Z,13.43
2018-07-22T14:30:50.725Z,10.07
2018-07-22T14:33:20.298Z,10.20
2018-07-22T14:35:49.794Z,10.10
2018-07-22T14:38:19.350Z,9.70
2018-07-22T14:40:48.869Z,11.00
2018-07-22T14:43:18.285Z,9.50
2018-07-22T14:45:47.299Z,8.73
2018-07-22T14:48:16.846Z,9.30
2018-07-22T14:50:46.515Z,9.23
2018-07-22T14:53:15.865Z,11.20
2018-07-22T14:55:45.285Z,9.90
2018-07-22T14:58:14.731Z,11.00
2018-07-22T15:00:44.237Z,9.20
2018-07-22T15:03:13.648Z,9.30
2018-07-22T15:05:43.012Z,8.90
2018-07-22T15:08:13.252Z,10.77
2018-07-22T15:10:42.658Z,12.50
2018-07-22T15:13:12.024Z,16.43
2018-07-22T15:15:41.773Z,11.40
2018-07-22T15:18:11.296Z,10.00
2018-07-22T15:20:40.784Z,10.47
2018-07-22T15:23:10.863Z,10.03
2018-07-22T15:25:39.918Z,11.40
2018-07-22T15:28:09.167Z,11.27
2018-07-22T15:30:38.720Z,13.37
2018-07-22T15:33:08.232Z,11.60
2018-07-22T15:35:37.617Z,11.23
2018-07-22T15:38:07.248Z,10.90
2018-07-22T15:40:36.650Z,10.97
2018-07-22T15:43:06.150Z,10.63
2018-07-22T15:45:35.554Z,12.57
2018-07-22T15:48:04.993Z,10.23
2018-07-22T15:50:34.057Z,10.50
2018-07-22T15:53:03.512Z,11.57
2018-07-22T15:55:33.185Z,13.07
2018-07-22T15:58:02.068Z,9.23
2018-07-22T16:00:31.325Z,9.70
2018-07-22T16:03:00.956Z,10.40
2018-07-22T16:05:30.368Z,10.10
2018-07-22T16:07:59.860Z,9.83
2018-07-22T16:10:29.275Z,12.50
2018-07-22T16:12:58.752Z,11.13
2018-07-22T16:15:28.266Z,16.13
2018-07-22T16:17:57.840Z,13.43
2018-07-22T16:20:27.488Z,11.83
2018-07-22T16:22:57.066Z,13.40
2018-07-22T16:25:27.177Z,11.70
2018-07-22T16:27:56.484Z,11.50
2018-07-22T16:30:26.447Z,12.57
2018-07-22T16:32:56.164Z,16.00
2018-07-22T16:35:25.544Z,14.23
2018-07-22T16:37:54.962Z,10.63
2018-07-22T16:40:24.484Z,12.47
2018-07-22T16:42:53.460Z,12.90
2018-07-22T16:45:22.786Z,13.13
2018-07-22T16:47:52.383Z,12.33
2018-07-22T16:50:21.985Z,13.07
2018-07-22T16:52:51.589Z,52.73
2018-07-22T16:55:20.977Z,11.83
2018-07-22T16:57:50.447Z,12.87
2018-07-22T17:00:20.398Z,17.27
2018-07-22T17:02:50.003Z,13.80
2018-07-22T17:05:19.608Z,16.17
2018-07-22T17:07:50.206Z,14.73
2018-07-22T17:10:19.853Z,15.30
2018-07-22T17:12:49.356Z,13.30
2018-07-22T17:15:18.759Z,12.27
2018-07-22T17:17:48.161Z,14.37
2018-07-22T17:20:17.651Z,28.80
2018-07-22T17:22:47.130Z,13.90
2018-07-22T17:25:16.566Z,19.30
2018-07-22T17:27:46.022Z,15.43
2018-07-22T17:30:15.468Z,13.70
2018-07-22T17:32:44.917Z,14.50
2018-07-22T17:35:14.118Z,20.50
2018-07-22T17:37:43.499Z,15.80
2018-07-22T17:40:13.042Z,12.30
2018-07-22T17:42:42.815Z,11.63
2018-07-22T17:45:12.337Z,12.20
2018-07-22T17:47:41.702Z,13.67
2018-07-22T17:50:11.283Z,12.20
2018-07-22T17:52:40.825Z,11.10
2018-07-22T17:55:10.349Z,11.20
2018-07-22T17:57:39.712Z,11.27
2018-07-22T18:00:09.642Z,10.77
2018-07-22T18:02:40.500Z,10.70
2018-07-22T18:05:10.625Z,11.27
2018-07-22T18:07:40.036Z,10.20
2018-07-22T18:10:09.541Z,11.10
2018-07-22T18:12:38.935Z,9.00
2018-07-22T18:15:08.551Z,12.40
2018-07-22T18:17:37.907Z,8.57
2018-07-22T18:20:07.456Z,12.10
2018-07-22T18:22:36.840Z,10.33
2018-07-22T18:25:06.336Z,11.83
2018-07-22T18:27:35.765Z,9.30
2018-07-22T18:30:05.543Z,10.50
2018-07-22T18:32:34.969Z,11.47
2018-07-22T18:35:04.603Z,11.30
2018-07-22T18:37:34.098Z,13.10
2018-07-22T18:40:03.665Z,12.57
2018-07-22T18:42:33.178Z,12.47
2018-07-22T18:45:02.587Z,12.70
2018-07-22T18:47:31.929Z,10.73
2018-07-22T18:50:01.318Z,10.50
2018-07-22T18:52:30.752Z,10.47
2018-07-22T18:55:00.304Z,13.57
2018-07-22T18:57:29.678Z,9.90
2018-07-22T18:59:59.350Z,13.43
2018-07-22T19:02:29.161Z,10.73
2018-07-22T19:05:00.264Z,12.80
2018-07-22T19:07:29.686Z,10.93
2018-07-22T19:09:59.221Z,11.77
2018-07-22T19:12:29.667Z,9.90
2018-07-22T19:14:59.455Z,11.43
2018-07-22T19:17:28.945Z,10.77
2018-07-22T19:19:57.948Z,10.00
2018-07-22T19:22:27.125Z,10.60
2018-07-22T19:24:57.125Z,15.83
2018-07-22T19:27:26.568Z,10.23
2018-07-22T19:29:56.640Z,14.33
2018-07-22T19:32:26.090Z,10.67
2018-07-22T19:34:56.522Z,11.47
2018-07-22T19:37:26.017Z,11.70
2018-07-22T19:39:55.535Z,10.60
2018-07-22T19:42:24.930Z,11.87
2018-07-22T19:44:54.379Z,11.63
2018-07-22T19:47:23.760Z,13.03
2018-07-22T19:49:53.308Z,11.30
2018-07-22T19:52:22.744Z,12.87
2018-07-22T19:54:52.147Z,13.13
2018-07-22T19:57:22.098Z,11.20
2018-07-22T19:59:51.745Z,14.23
2018-07-22T20:02:21.145Z,13.30
2018-07-22T20:04:50.693Z,13.10
2018-07-22T20:07:20.218Z,12.80
2018-07-22T20:09:49.814Z,12.27
2018-07-22T20:12:19.450Z,12.60
2018-07-22T20:14:49.451Z,13.60
2018-07-22T20:17:18.951Z,13.57
2018-07-22T20:19:48.682Z,19.10
2018-07-22T20:22:18.189Z,12.97
2018-07-22T20:24:47.893Z,13.20
2018-07-22T20:27:17.365Z,13.83
2018-07-22T20:29:46.909Z,12.90
2018-07-22T20:32:17.298Z,12.53
2018-07-22T20:34:46.723Z,15.43
2018-07-22T20:37:16.354Z,13.93
2018-07-22T20:39:47.077Z,17.33
2018-07-22T20:42:17.692Z,15.50
2018-07-22T20:44:47.264Z,18.13
2018-07-22T20:47:18.189Z,16.80
2018-07-22T20:49:48.055Z,18.13
2018-07-22T20:52:18.592Z,15.27
2018-07-22T20:54:49.175Z,18.13
2018-07-22T20:57:18.635Z,20.47
2018-07-22T20:59:48.134Z,16.43
2018-07-22T21:02:17.645Z,20.77
2018-07-22T21:04:47.143Z,18.60
2018-07-22T21:07:16.653Z,15.50
2018-07-22T21:09:46.128Z,17.63
2018-07-22T21:12:53.155Z,21.67
2018-07-22T21:15:22.608Z,18.20
2018-07-22T21:17:52.565Z,18.40
2018-07-22T21:20:22.480Z,19.93
2018-07-22T21:22:51.929Z,23.07
2018-07-22T21:25:21.348Z,18.20
2018-07-22T21:27:50.764Z,14.30
2018-07-22T21:30:20.558Z,22.40
2018-07-22T21:32:49.935Z,18.13
2018-07-22T21:35:19.394Z,17.87
2018-07-22T21:37:48.793Z,21.27
2018-07-22T21:40:18.216Z,19.17
2018-07-22T21:42:47.626Z,16.77
2018-07-22T21:45:16.654Z,19.40
2018-07-22T21:47:45.905Z,15.90
2018-07-22T21:50:15.359Z,17.13
2018-07-22T21:52:44.869Z,16.70
2018-07-22T21:55:14.448Z,23.30
2018-07-22T21:57:44.027Z,17.30
2018-07-22T22:00:32.876Z,19.43
2018-07-22T22:03:04.119Z,21.40
2018-07-22T22:05:33.954Z,20.23
2018-07-22T22:08:03.039Z,23.50
2018-07-22T22:10:32.333Z,21.10
2018-07-22T22:13:01.806Z,27.20
2018-07-22T22:15:32.126Z,21.03
2018-07-22T22:18:03.696Z,22.50
2018-07-22T22:20:33.645Z,28.23
2018-07-22T22:23:03.245Z,24.80
2018-07-22T22:25:32.790Z,26.00
2018-07-22T22:28:02.169Z,24.27
2018-07-22T22:30:31.682Z,23.13
2018-07-22T22:33:01.096Z,22.87
2018-07-22T22:35:30.522Z,23.73
2018-07-22T22:38:00.508Z,25.73
2018-07-22T22:40:29.675Z,24.20
2018-07-22T22:42:59.404Z,29.63
2018-07-22T22:45:28.919Z,24.87
2018-07-22T22:47:58.327Z,27.90
2018-07-22T22:50:27.465Z,28.70
2018-07-22T22:52:57.026Z,28.23
2018-07-22T22:55:26.194Z,26.83
2018-07-22T22:58:06.776Z,28.03
2018-07-22T23:00:36.067Z,24.83
2018-07-22T23:03:05.511Z,25.67
2018-07-22T23:05:35.044Z,23.27
2018-07-22T23:08:04.854Z,23.30
2018-07-22T23:10:34.379Z,26.17
2018-07-22T23:13:03.887Z,22.83
2018-07-22T23:15:33.429Z,20.27
2018-07-22T23:18:02.807Z,23.57
2018-07-22T23:20:32.316Z,20.93
2018-07-22T23:23:01.804Z,23.00
2018-07-22T23:25:31.408Z,17.60
2018-07-22T23:28:00.812Z,19.20
2018-07-22T23:30:30.363Z,20.93
2018-07-22T23:33:00.258Z,27.33
2018-07-22T23:35:29.820Z,21.37
2018-07-22T23:38:00.068Z,24.83
2018-07-22T23:40:29.778Z,23.27
2018-07-22T23:42:59.359Z,26.07
2018-07-22T23:45:29.016Z,25.50
2018-07-22T23:47:59.462Z,30.47
2018-07-22T23:50:30.625Z,28.53
2018-07-22T23:53:01.175Z,29.03
2018-07-22T23:55:30.753Z,28.40
2018-07-22T23:58:00.347Z,28.73
